createdAt,value
2023-01-27T00:03:26.962Z,17.73
2023-01-27T00:08:32.070Z,18.93
2023-01-27T00:13:37.271Z,20.57
2023-01-27T00:18:45.076Z,18.73
2023-01-27T00:24:02.437Z,18.97
2023-01-27T00:29:07.555Z,19.43
2023-01-27T00:34:15.137Z,17.70
2023-01-27T00:39:20.476Z,19.37
2023-01-27T00:44:25.448Z,19.13
2023-01-27T00:49:33.382Z,19.77
2023-01-27T00:54:39.153Z,20.33
2023-01-27T00:59:44.202Z,20.70
2023-01-27T01:04:55.016Z,17.77
2023-01-27T01:10:00.227Z,16.83
2023-01-27T01:15:05.265Z,19.93
2023-01-27T01:20:14.742Z,18.57
2023-01-27T01:25:19.792Z,17.67
2023-01-27T01:30:26.499Z,18.57
2023-01-27T01:35:34.402Z,16.97
2023-01-27T01:40:43.902Z,17.63
2023-01-27T01:45:55.611Z,17.23
2023-01-27T01:51:09.416Z,17.73
2023-01-27T01:56:19.479Z,19.47
2023-01-27T02:01:24.908Z,15.50
2023-01-27T02:06:36.378Z,16.40
2023-01-27T02:11:41.318Z,16.73
2023-01-27T02:16:47.959Z,15.90
2023-01-27T02:21:58.225Z,16.70
2023-01-27T02:27:06.033Z,16.27
2023-01-27T02:32:11.152Z,15.23
2023-01-27T02:37:16.531Z,14.20
2023-01-27T02:42:24.850Z,14.33
2023-01-27T02:47:30.522Z,14.80
2023-01-27T02:52:36.080Z,14.10
2023-01-27T02:57:43.638Z,18.10
2023-01-27T03:03:21.096Z,13.90
2023-01-27T03:08:26.134Z,13.03
2023-01-27T03:13:33.691Z,13.00
2023-01-27T03:18:39.511Z,12.17
2023-01-27T03:23:46.120Z,13.30
2023-01-27T03:29:15.500Z,12.60
2023-01-27T03:34:22.241Z,13.27
2023-01-27T03:39:45.630Z,12.10
2023-01-27T03:45:05.639Z,11.10
2023-01-27T03:50:19.406Z,11.73
2023-01-27T03:55:25.754Z,11.40
2023-01-27T04:00:33.562Z,12.73
2023-01-27T04:05:50.947Z,11.50
2023-01-27T04:11:08.163Z,12.33
2023-01-27T04:16:18.054Z,12.90
2023-01-27T04:21:23.080Z,12.13
2023-01-27T04:26:33.403Z,12.83
2023-01-27T04:31:44.416Z,14.87
2023-01-27T04:36:50.271Z,13.30
2023-01-27T04:41:55.421Z,13.03
2023-01-27T04:47:03.180Z,15.80
2023-01-27T04:52:08.340Z,13.17
2023-01-27T04:57:14.115Z,15.80
2023-01-27T05:02:21.921Z,13.10
2023-01-27T05:07:26.951Z,14.50
2023-01-27T05:12:31.922Z,13.23
2023-01-27T05:17:41.692Z,13.40
2023-01-27T05:22:46.702Z,12.20
2023-01-27T05:27:51.834Z,15.43
2023-01-27T05:32:59.861Z,14.00
2023-01-27T05:38:07.472Z,14.43
2023-01-27T05:43:12.388Z,14.37
2023-01-27T05:48:20.097Z,13.33
2023-01-27T05:53:29.588Z,13.53
2023-01-27T05:58:37.056Z,13.57
2023-01-27T06:03:45.402Z,14.67
2023-01-27T06:08:53.161Z,14.30
2023-01-27T06:13:59.623Z,13.83
2023-01-27T06:19:11.045Z,16.33
2023-01-27T06:24:18.828Z,14.60
2023-01-27T06:29:27.697Z,12.73
2023-01-27T06:34:35.292Z,14.33
2023-01-27T06:39:50.880Z,14.17
2023-01-27T06:44:56.136Z,14.13
2023-01-27T06:50:04.245Z,14.80
2023-01-27T06:55:10.021Z,14.23
2023-01-27T07:00:16.692Z,14.00
2023-01-27T07:05:24.615Z,14.77
2023-01-27T07:10:33.810Z,14.20
2023-01-27T07:15:46.979Z,14.17
2023-01-27T07:20:54.708Z,13.07
2023-01-27T07:26:00.972Z,13.63
2023-01-27T07:31:06.978Z,12.97
2023-01-27T07:36:16.443Z,13.40
2023-01-27T07:41:24.204Z,12.93
2023-01-27T07:46:29.501Z,13.20
2023-01-27T07:51:39.571Z,14.30
2023-01-27T07:56:45.264Z,14.13
2023-01-27T08:01:53.917Z,12.70
2023-01-27T08:07:03.167Z,12.30
2023-01-27T08:12:08.988Z,12.40
2023-01-27T08:17:14.669Z,11.93
2023-01-27T08:22:24.080Z,11.47
2023-01-27T08:27:29.081Z,11.87
2023-01-27T08:32:38.344Z,12.77
2023-01-27T08:37:48.218Z,11.93
2023-01-27T08:42:55.895Z,12.77
2023-01-27T08:48:01.057Z,10.33
2023-01-27T08:53:08.876Z,11.00
2023-01-27T08:58:15.447Z,11.60
2023-01-27T09:03:21.151Z,11.90
2023-01-27T09:08:30.782Z,15.03
2023-01-27T09:13:41.903Z,16.13
2023-01-27T09:18:52.284Z,16.73
2023-01-27T09:24:03.663Z,14.47
2023-01-27T09:29:12.745Z,17.17
2023-01-27T09:34:19.100Z,17.87
2023-01-27T09:39:27.641Z,16.73
2023-01-27T09:45:11.315Z,15.40
2023-01-27T09:50:36.621Z,16.17
2023-01-27T09:55:50.593Z,16.03
2023-01-27T10:01:18.730Z,16.20
2023-01-27T10:06:46.251Z,15.33
2023-01-27T10:12:08.570Z,15.73
2023-01-27T10:17:31.328Z,13.83
2023-01-27T10:22:49.085Z,15.57
2023-01-27T10:28:10.086Z,14.80
2023-01-27T10:33:21.868Z,13.70
2023-01-27T10:38:41.468Z,14.77
2023-01-27T10:44:01.519Z,13.23
2023-01-27T10:49:23.164Z,13.80
2023-01-27T10:54:36.258Z,14.83
2023-01-27T11:00:17.372Z,14.70
2023-01-27T11:05:24.497Z,13.03
2023-01-27T11:10:39.207Z,14.40
2023-01-27T11:15:58.654Z,13.67
2023-01-27T11:21:08.779Z,13.73
2023-01-27T11:26:29.154Z,14.73
2023-01-27T11:31:46.691Z,15.07
2023-01-27T11:36:54.020Z,14.80
2023-01-27T11:42:01.036Z,13.63
2023-01-27T11:47:16.119Z,14.07
2023-01-27T11:52:27.085Z,12.57
2023-01-27T11:57:33.578Z,13.40
2023-01-27T12:02:47.633Z,14.20
2023-01-27T12:07:58.027Z,14.87
2023-01-27T12:13:11.638Z,15.67
2023-01-27T12:18:23.750Z,15.50
2023-01-27T12:23:35.617Z,14.07
2023-01-27T12:28:45.041Z,14.40
2023-01-27T12:34:03.672Z,17.30
2023-01-27T12:39:09.159Z,14.57
2023-01-27T12:44:22.963Z,14.80
2023-01-27T12:49:36.530Z,14.47
2023-01-27T12:54:41.803Z,14.50
2023-01-27T12:59:55.394Z,12.97
2023-01-27T13:05:08.212Z,13.13
2023-01-27T13:10:23.368Z,13.03
2023-01-27T13:15:32.843Z,11.23
2023-01-27T13:20:47.432Z,11.87
2023-01-27T13:25:57.099Z,11.80
2023-01-27T13:31:09.155Z,10.23
2023-01-27T13:36:30.025Z,10.67
2023-01-27T13:41:46.866Z,10.73
2023-01-27T13:46:56.907Z,12.40
2023-01-27T13:52:08.675Z,11.00
2023-01-27T13:57:50.245Z,8.57
2023-01-27T14:03:34.963Z,10.17
2023-01-27T14:09:09.720Z,10.10
2023-01-27T14:14:29.569Z,10.33
2023-01-27T14:19:49.906Z,8.80
2023-01-27T14:25:04.166Z,8.37
2023-01-27T14:30:27.487Z,7.93
2023-01-27T14:35:39.760Z,7.97
2023-01-27T14:41:06.256Z,7.73
2023-01-27T14:46:23.413Z,7.17
2023-01-27T14:51:38.431Z,7.27
2023-01-27T14:56:53.656Z,7.80
2023-01-27T15:02:08.143Z,7.10
2023-01-27T15:07:19.671Z,6.60
2023-01-27T15:12:43.730Z,6.93
2023-01-27T15:18:01.824Z,6.97
2023-01-27T15:23:40.952Z,7.23
2023-01-27T15:28:52.806Z,7.70
2023-01-27T15:34:17.133Z,7.07
2023-01-27T15:39:35.639Z,7.00
2023-01-27T15:45:02.553Z,7.33
2023-01-27T15:50:22.998Z,7.10
2023-01-27T15:55:30.910Z,6.67
2023-01-27T16:00:42.944Z,7.30
2023-01-27T16:05:53.410Z,6.33
2023-01-27T16:11:26.617Z,6.97
2023-01-27T16:16:40.463Z,8.47
2023-01-27T16:21:50.763Z,7.63
2023-01-27T16:27:07.303Z,7.83
2023-01-27T16:32:21.501Z,10.17
2023-01-27T16:37:31.974Z,11.03
2023-01-27T16:42:43.424Z,11.10
2023-01-27T16:47:55.227Z,11.93
2023-01-27T16:53:02.031Z,11.80
2023-01-27T16:58:07.763Z,12.63
2023-01-27T17:03:23.572Z,13.47
2023-01-27T17:08:45.818Z,13.10
2023-01-27T17:13:54.846Z,14.87
2023-01-27T17:19:09.880Z,14.20
2023-01-27T17:24:19.497Z,14.03
2023-01-27T17:29:27.240Z,14.87
2023-01-27T17:34:36.058Z,13.27
2023-01-27T17:39:46.076Z,15.53
2023-01-27T17:44:52.068Z,15.77
2023-01-27T17:50:03.079Z,17.20
2023-01-27T17:55:09.609Z,16.43
2023-01-27T18:00:27.439Z,17.17
2023-01-27T18:05:36.764Z,17.40
2023-01-27T18:10:46.033Z,18.23
2023-01-27T18:15:52.583Z,16.80
2023-01-27T18:21:19.129Z,18.73
2023-01-27T18:26:29.309Z,19.53
2023-01-27T18:31:40.480Z,19.87
2023-01-27T18:36:56.984Z,20.70
2023-01-27T18:42:06.673Z,20.43
2023-01-27T18:47:31.334Z,20.23
2023-01-27T18:52:41.044Z,20.40
2023-01-27T18:57:46.383Z,20.00
2023-01-27T19:02:56.443Z,19.67
2023-01-27T19:08:05.737Z,23.40
2023-01-27T19:13:14.712Z,21.57
2023-01-27T19:18:26.429Z,21.63
2023-01-27T19:23:35.105Z,21.77
2023-01-27T19:28:41.717Z,21.70
2023-01-27T19:33:47.718Z,24.80
2023-01-27T19:38:58.154Z,22.57
2023-01-27T19:44:05.810Z,24.30
2023-01-27T19:49:18.048Z,23.40
2023-01-27T19:54:26.478Z,23.23
2023-01-27T19:59:32.632Z,23.07
2023-01-27T20:04:39.830Z,23.80
2023-01-27T20:09:48.068Z,24.33
2023-01-27T20:14:54.331Z,25.97
2023-01-27T20:20:02.270Z,25.57
2023-01-27T20:25:15.797Z,24.90
2023-01-27T20:30:24.536Z,25.60
2023-01-27T20:35:33.790Z,24.67
2023-01-27T20:40:41.686Z,25.37
2023-01-27T20:45:47.077Z,23.23
2023-01-27T20:51:01.226Z,21.07
2023-01-27T20:56:21.082Z,19.90
2023-01-27T21:01:27.803Z,21.70
2023-01-27T21:06:33.056Z,20.27
2023-01-27T21:11:43.036Z,20.13
2023-01-27T21:16:51.896Z,19.60
2023-01-27T21:21:58.876Z,19.73
2023-01-27T21:27:06.635Z,18.57
2023-01-27T21:32:16.833Z,21.07
2023-01-27T21:37:21.788Z,19.30
2023-01-27T21:42:41.823Z,20.07
2023-01-27T21:47:46.944Z,19.87
2023-01-27T21:52:53.529Z,20.10
2023-01-27T21:58:01.375Z,21.13
2023-01-27T22:03:10.337Z,21.60
2023-01-27T22:08:15.394Z,21.10
2023-01-27T22:13:24.519Z,20.23
2023-01-27T22:18:30.466Z,20.33
2023-01-27T22:23:35.353Z,19.80
2023-01-27T22:28:43.049Z,19.30
2023-01-27T22:33:48.114Z,19.37
2023-01-27T22:38:53.038Z,19.60
2023-01-27T22:44:00.579Z,19.13
2023-01-27T22:49:05.865Z,19.67
2023-01-27T22:54:12.397Z,18.30
2023-01-27T22:59:19.977Z,17.70
2023-01-27T23:04:24.912Z,17.80
2023-01-27T23:09:31.770Z,17.87
2023-01-27T23:14:39.401Z,17.37
2023-01-27T23:19:44.289Z,15.93
2023-01-27T23:24:49.205Z,13.53
2023-01-27T23:29:56.783Z,14.40
2023-01-27T23:35:01.686Z,11.27
2023-01-27T23:40:10.200Z,9.27
2023-01-27T23:45:18.822Z,8.47
2023-01-27T23:50:24.082Z,8.33
2023-01-27T23:55:29.185Z,8.13
